Time;durP1;ratioP1;P1;durP2;ratioP2;P2;SDS_P1;SDS_P2;PMS_P1;PMS_P2;Temp;Humidity;BMP_temperature;BMP_pressure;BME280_temperature;BME280_humidity;BME280_pressure;Samples;Min_cycle;Max_cycle;Signal;HPM_P1;HPM_P2
2021/04/16 00:01:18;;;;;;;12.40;7.67;;;;;;;;;;5116024;28;20103;-56
2021/04/16 00:03:45;;;;;;;13.63;8.07;;;;;;;;;;5115960;28;20098;-56
2021/04/16 00:06:12;;;;;;;10.03;6.87;;;;;;;;;;5115814;28;20390;-55
2021/04/16 00:08:38;;;;;;;15.70;7.50;;;;;;;;;;5115883;28;20080;-56
2021/04/16 00:11:05;;;;;;;12.57;7.57;;;;;;;;;;5115665;28;20040;-55
2021/04/16 00:13:32;;;;;;;14.10;7.43;;;;;;;;;;5115703;28;20028;-56
2021/04/16 00:15:59;;;;;;;11.20;6.67;;;;;;;;;;5115649;28;20035;-56
2021/04/16 00:18:27;;;;;;;9.00;5.80;;;;;;;;;;5115633;28;20032;-56
2021/04/16 00:20:54;;;;;;;10.10;5.40;;;;;;;;;;5115562;28;20065;-56
2021/04/16 00:23:21;;;;;;;7.13;4.87;;;;;;;;;;5115536;28;20019;-55
2021/04/16 00:25:48;;;;;;;8.93;5.70;;;;;;;;;;5115447;28;20024;-56
2021/04/16 00:28:16;;;;;;;11.17;6.10;;;;;;;;;;5116121;28;20024;-55
2021/04/16 00:30:47;;;;;;;9.37;5.70;;;;;;;;;;5115296;28;20028;-56
2021/04/16 00:33:15;;;;;;;11.10;6.73;;;;;;;;;;5115269;28;20030;-55
2021/04/16 00:35:41;;;;;;;13.43;6.47;;;;;;;;;;5115290;28;20051;-55
2021/04/16 00:38:10;;;;;;;12.30;6.93;;;;;;;;;;5115326;28;20015;-55
2021/04/16 00:40:39;;;;;;;12.20;6.80;;;;;;;;;;5115296;28;20016;-55
2021/04/16 00:43:06;;;;;;;10.27;5.63;;;;;;;;;;5115190;28;20034;-55
2021/04/16 00:45:34;;;;;;;9.60;6.10;;;;;;;;;;5114350;28;20534;-55
2021/04/16 00:48:02;;;;;;;10.13;6.43;;;;;;;;;;5115105;28;20062;-56
2021/04/16 00:50:31;;;;;;;8.57;6.00;;;;;;;;;;5114950;28;20032;-55
2021/04/16 00:52:59;;;;;;;9.57;6.27;;;;;;;;;;5114552;27;20135;-56
2021/04/16 00:55:26;;;;;;;6.60;5.30;;;;;;;;;;5114794;28;20485;-56
2021/04/16 00:57:53;;;;;;;6.73;5.10;;;;;;;;;;5114952;28;20051;-56
2021/04/16 01:00:21;;;;;;;9.03;4.97;;;;;;;;;;5114739;28;20391;-56
2021/04/16 01:02:48;;;;;;;7.53;5.13;;;;;;;;;;5114809;28;20060;-56
2021/04/16 01:05:15;;;;;;;12.70;4.90;;;;;;;;;;5114592;28;20023;-55
2021/04/16 01:07:42;;;;;;;8.87;4.70;;;;;;;;;;5114623;28;20028;-55
2021/04/16 01:10:10;;;;;;;6.47;4.63;;;;;;;;;;5096253;28;20073;-55
2021/04/16 01:12:37;;;;;;;6.30;4.67;;;;;;;;;;5114531;28;20034;-55
2021/04/16 01:15:16;;;;;;;8.47;4.97;;;;;;;;;;5114483;28;20505;-55
2021/04/16 01:17:43;;;;;;;13.20;5.63;;;;;;;;;;5114475;28;20470;-55
2021/04/16 01:20:12;;;;;;;7.33;5.20;;;;;;;;;;5114477;28;20035;-55
2021/04/16 01:22:52;;;;;;;10.57;4.97;;;;;;;;;;5114281;28;20470;-55
2021/04/16 01:25:20;;;;;;;8.47;5.20;;;;;;;;;;5114346;28;20539;-56
2021/04/16 01:27:47;;;;;;;6.50;4.37;;;;;;;;;;5114345;28;20039;-56
2021/04/16 01:30:16;;;;;;;6.47;4.57;;;;;;;;;;5114110;28;20038;-56
2021/04/16 01:32:43;;;;;;;6.93;5.10;;;;;;;;;;5114125;28;20028;-55
2021/04/16 01:35:11;;;;;;;6.43;4.97;;;;;;;;;;5114029;28;20050;-55
2021/04/16 01:37:38;;;;;;;9.53;4.80;;;;;;;;;;5114113;28;20036;-56
2021/04/16 01:40:06;;;;;;;7.10;4.10;;;;;;;;;;5113986;28;20028;-56
2021/04/16 01:42:33;;;;;;;11.17;5.40;;;;;;;;;;5114038;28;20102;-56
2021/04/16 01:45:00;;;;;;;11.37;4.97;;;;;;;;;;5113958;28;20035;-56
2021/04/16 01:47:27;;;;;;;7.90;5.03;;;;;;;;;;5113923;28;20337;-56
2021/04/16 01:49:59;;;;;;;8.70;4.17;;;;;;;;;;5113862;28;20482;-56
2021/04/16 01:52:31;;;;;;;7.13;5.03;;;;;;;;;;5113221;28;20064;-55
2021/04/16 01:55:08;;;;;;;12.53;5.73;;;;;;;;;;5112163;27;20436;-56
2021/04/16 01:57:42;;;;;;;10.60;5.47;;;;;;;;;;5111013;28;20460;-56
2021/04/16 02:00:16;;;;;;;10.90;6.03;;;;;;;;;;5113286;28;20475;-56
2021/04/16 02:02:47;;;;;;;12.25;5.70;;;;;;;;;;5113395;28;20032;-56
2021/04/16 02:05:18;;;;;;;9.63;5.70;;;;;;;;;;5113662;28;20501;-56
2021/04/16 02:07:49;;;;;;;10.77;5.50;;;;;;;;;;5113698;28;20344;-55
2021/04/16 02:10:18;;;;;;;7.03;5.33;;;;;;;;;;5113298;28;20144;-55
2021/04/16 02:12:55;;;;;;;9.37;4.90;;;;;;;;;;5113314;28;20043;-55
2021/04/16 02:15:25;;;;;;;11.57;5.50;;;;;;;;;;5113325;28;20026;-55
2021/04/16 02:17:57;;;;;;;6.67;5.23;;;;;;;;;;5113453;28;20024;-55
2021/04/16 02:20:31;;;;;;;10.20;5.53;;;;;;;;;;5113525;28;20019;-56
2021/04/16 02:23:08;;;;;;;8.45;5.82;;;;;;;;;;5113443;28;20058;-56
2021/04/16 02:25:35;;;;;;;8.20;5.83;;;;;;;;;;5113415;28;20022;-56
2021/04/16 02:28:01;;;;;;;7.57;5.80;;;;;;;;;;5113399;28;20027;-56
2021/04/16 02:30:31;;;;;;;10.47;6.37;;;;;;;;;;5113271;28;20356;-55
2021/04/16 02:32:58;;;;;;;10.57;6.13;;;;;;;;;;5113241;28;20390;-56
2021/04/16 02:35:25;;;;;;;9.77;6.23;;;;;;;;;;5113164;28;20019;-56
2021/04/16 02:37:52;;;;;;;8.50;6.00;;;;;;;;;;5113073;28;20027;-55
2021/04/16 02:40:21;;;;;;;7.83;6.10;;;;;;;;;;5113177;28;20032;-55
2021/04/16 02:42:48;;;;;;;8.67;5.80;;;;;;;;;;5113183;28;20024;-55
2021/04/16 02:45:16;;;;;;;12.67;5.53;;;;;;;;;;5113201;28;20410;-55
2021/04/16 02:47:43;;;;;;;8.43;5.80;;;;;;;;;;5113156;28;20518;-55
2021/04/16 02:50:12;;;;;;;15.20;6.57;;;;;;;;;;5113113;28;20027;-55
2021/04/16 02:52:38;;;;;;;15.60;5.93;;;;;;;;;;5113061;28;20028;-55
2021/04/16 02:55:06;;;;;;;9.00;5.93;;;;;;;;;;5112761;28;20079;-55
2021/04/16 02:57:32;;;;;;;6.70;5.23;;;;;;;;;;5113164;28;20020;-55
2021/04/16 02:59:59;;;;;;;9.33;5.63;;;;;;;;;;5113027;28;20250;-55
2021/04/16 03:02:26;;;;;;;10.73;6.17;;;;;;;;;;5113078;28;20106;-55
2021/04/16 03:04:53;;;;;;;10.37;6.60;;;;;;;;;;5112954;28;20055;-55
2021/04/16 03:07:20;;;;;;;10.77;6.00;;;;;;;;;;5112979;28;20214;-55
2021/04/16 03:09:46;;;;;;;8.83;5.40;;;;;;;;;;5116323;28;20102;-54
2021/04/16 03:12:13;;;;;;;8.20;5.03;;;;;;;;;;5116832;28;20027;-55
2021/04/16 03:14:40;;;;;;;8.63;5.73;;;;;;;;;;5116868;28;20111;-55
2021/04/16 03:17:07;;;;;;;7.90;6.07;;;;;;;;;;5116859;28;20053;-55
2021/04/16 03:19:34;;;;;;;10.73;5.97;;;;;;;;;;5116832;28;20459;-55
2021/04/16 03:22:01;;;;;;;8.53;5.63;;;;;;;;;;5116810;28;20019;-55
2021/04/16 03:24:28;;;;;;;9.10;6.07;;;;;;;;;;5116630;28;20051;-55
2021/04/16 03:26:55;;;;;;;9.93;5.80;;;;;;;;;;5116670;28;20072;-55
2021/04/16 03:29:22;;;;;;;7.50;5.50;;;;;;;;;;5116528;28;20382;-55
2021/04/16 03:31:48;;;;;;;9.37;6.20;;;;;;;;;;5116440;28;20040;-55
2021/04/16 03:34:15;;;;;;;11.80;5.63;;;;;;;;;;5116604;28;20073;-55
2021/04/16 03:36:42;;;;;;;13.27;6.40;;;;;;;;;;5116510;28;20494;-55
2021/04/16 03:39:09;;;;;;;9.93;6.37;;;;;;;;;;5116420;28;20118;-55
2021/04/16 03:41:35;;;;;;;13.33;6.97;;;;;;;;;;5116337;28;20045;-55
2021/04/16 03:44:02;;;;;;;8.87;6.33;;;;;;;;;;5116356;28;20128;-55
2021/04/16 03:46:29;;;;;;;9.87;5.90;;;;;;;;;;5116354;28;20463;-55
2021/04/16 03:48:56;;;;;;;8.03;5.10;;;;;;;;;;5116265;28;20359;-55
2021/04/16 03:51:23;;;;;;;7.70;5.70;;;;;;;;;;5116474;28;20031;-55
2021/04/16 03:53:49;;;;;;;11.00;5.90;;;;;;;;;;5115692;28;20055;-55
2021/04/16 03:56:17;;;;;;;7.57;5.53;;;;;;;;;;5116061;28;20119;-55
2021/04/16 03:58:45;;;;;;;9.67;6.30;;;;;;;;;;5116025;28;20498;-55
2021/04/16 04:01:12;;;;;;;10.30;6.33;;;;;;;;;;5116038;28;20027;-55
2021/04/16 04:03:39;;;;;;;11.83;6.07;;;;;;;;;;5116091;28;20027;-56
2021/04/16 04:06:09;;;;;;;11.30;6.30;;;;;;;;;;5115992;28;20043;-56
2021/04/16 04:08:36;;;;;;;9.67;6.60;;;;;;;;;;5116166;28;20269;-56
2021/04/16 04:11:03;;;;;;;10.67;6.33;;;;;;;;;;5115744;28;20031;-56
2021/04/16 04:13:30;;;;;;;11.70;6.63;;;;;;;;;;5115728;28;20419;-56
2021/04/16 04:15:57;;;;;;;12.00;7.00;;;;;;;;;;5115693;28;20024;-56
2021/04/16 04:18:24;;;;;;;10.20;7.43;;;;;;;;;;5115691;28;20063;-56
2021/04/16 04:20:50;;;;;;;12.60;6.80;;;;;;;;;;5114503;28;20028;-55
2021/04/16 04:23:17;;;;;;;11.37;6.27;;;;;;;;;;5115593;28;20023;-56
2021/04/16 04:25:44;;;;;;;8.77;6.03;;;;;;;;;;5115436;28;20383;-56
2021/04/16 04:28:11;;;;;;;10.07;6.50;;;;;;;;;;5115587;28;20027;-56
2021/04/16 04:30:38;;;;;;;9.60;6.03;;;;;;;;;;5115411;28;20034;-56
2021/04/16 04:33:06;;;;;;;13.77;7.23;;;;;;;;;;5115325;28;20551;-55
2021/04/16 04:35:33;;;;;;;13.20;6.50;;;;;;;;;;5115312;28;20019;-56
2021/04/16 04:38:00;;;;;;;13.97;6.73;;;;;;;;;;5115316;28;20039;-55
2021/04/16 04:40:27;;;;;;;9.47;6.23;;;;;;;;;;5115570;28;20024;-55
2021/04/16 04:42:54;;;;;;;14.33;6.23;;;;;;;;;;5115213;28;20032;-55
2021/04/16 04:45:20;;;;;;;8.30;5.13;;;;;;;;;;5115128;28;20040;-55
2021/04/16 04:47:47;;;;;;;10.53;5.60;;;;;;;;;;5115161;28;20077;-54
2021/04/16 04:50:15;;;;;;;10.67;6.27;;;;;;;;;;5115102;28;20055;-54
2021/04/16 04:52:42;;;;;;;8.83;6.07;;;;;;;;;;5115036;28;20398;-55
2021/04/16 04:55:11;;;;;;;9.63;6.37;;;;;;;;;;5114499;27;20130;-55
2021/04/16 04:57:39;;;;;;;9.30;6.30;;;;;;;;;;5115010;28;20109;-55
2021/04/16 05:00:07;;;;;;;14.53;6.27;;;;;;;;;;5114896;28;20035;-55
2021/04/16 05:02:34;;;;;;;10.03;5.97;;;;;;;;;;5114886;28;20030;-55
2021/04/16 05:05:01;;;;;;;12.17;5.47;;;;;;;;;;5115010;28;20031;-55
2021/04/16 05:07:28;;;;;;;7.17;5.17;;;;;;;;;;5114668;28;20034;-55
2021/04/16 05:09:54;;;;;;;10.63;6.77;;;;;;;;;;5114649;28;20506;-55
2021/04/16 05:12:21;;;;;;;9.93;6.37;;;;;;;;;;5114657;28;20039;-55
2021/04/16 05:14:48;;;;;;;11.03;6.43;;;;;;;;;;5114508;28;20027;-55
2021/04/16 05:17:15;;;;;;;9.70;6.10;;;;;;;;;;5114494;28;20035;-55
2021/04/16 05:19:41;;;;;;;7.53;5.60;;;;;;;;;;5114525;28;20027;-55
2021/04/16 05:22:08;;;;;;;10.43;6.40;;;;;;;;;;5114483;28;20429;-55
2021/04/16 05:24:36;;;;;;;9.33;6.07;;;;;;;;;;5114464;28;20027;-55
2021/04/16 05:27:04;;;;;;;7.70;5.80;;;;;;;;;;5114306;28;20066;-55
2021/04/16 05:29:31;;;;;;;10.60;6.33;;;;;;;;;;5114570;28;20058;-55
2021/04/16 05:31:58;;;;;;;12.43;6.27;;;;;;;;;;5113973;28;20042;-55
2021/04/16 05:34:25;;;;;;;12.93;6.80;;;;;;;;;;5114175;28;20099;-55
2021/04/16 05:36:52;;;;;;;12.93;7.40;;;;;;;;;;5114089;28;20035;-55
2021/04/16 05:39:19;;;;;;;9.40;6.20;;;;;;;;;;5114080;28;20096;-55
2021/04/16 05:41:45;;;;;;;10.17;5.60;;;;;;;;;;5114008;28;20568;-55
2021/04/16 05:44:12;;;;;;;11.07;5.73;;;;;;;;;;5113820;28;20019;-55
2021/04/16 05:46:39;;;;;;;15.40;6.80;;;;;;;;;;5114071;28;20028;-55
2021/04/16 05:49:06;;;;;;;13.03;7.57;;;;;;;;;;5113892;28;20060;-55
2021/04/16 05:51:34;;;;;;;15.20;8.63;;;;;;;;;;5113796;28;20386;-55
2021/04/16 05:54:00;;;;;;;15.70;7.87;;;;;;;;;;5113420;28;20141;-55
2021/04/16 05:56:27;;;;;;;17.17;8.60;;;;;;;;;;5113771;28;20104;-55
2021/04/16 05:58:54;;;;;;;15.63;8.47;;;;;;;;;;5113704;28;20020;-55
2021/04/16 06:01:21;;;;;;;16.80;9.23;;;;;;;;;;5113654;28;20028;-55
2021/04/16 06:03:48;;;;;;;13.37;7.97;;;;;;;;;;5113637;28;20378;-55
2021/04/16 06:06:15;;;;;;;17.57;8.37;;;;;;;;;;5113672;28;20030;-55
2021/04/16 06:08:43;;;;;;;16.27;8.10;;;;;;;;;;5113631;28;20032;-55
2021/04/16 06:11:10;;;;;;;18.43;9.93;;;;;;;;;;5095537;28;20035;-55
2021/04/16 06:13:38;;;;;;;14.23;8.20;;;;;;;;;;5113491;28;20039;-55
2021/04/16 06:16:06;;;;;;;12.80;8.67;;;;;;;;;;5113523;28;20027;-55
2021/04/16 06:18:33;;;;;;;14.87;8.53;;;;;;;;;;5113485;28;20459;-55
2021/04/16 06:21:00;;;;;;;15.60;8.87;;;;;;;;;;5113316;28;20498;-55
2021/04/16 06:23:27;;;;;;;13.37;8.10;;;;;;;;;;5113502;28;20484;-55
2021/04/16 06:25:54;;;;;;;16.03;9.60;;;;;;;;;;5113375;28;20031;-55
2021/04/16 06:28:21;;;;;;;12.57;8.00;;;;;;;;;;5113536;28;20024;-55
2021/04/16 06:30:49;;;;;;;10.00;6.93;;;;;;;;;;5113267;28;20027;-55
2021/04/16 06:33:22;;;;;;;13.30;7.80;;;;;;;;;;5113377;28;20035;-55
2021/04/16 06:35:50;;;;;;;18.27;7.53;;;;;;;;;;5113216;28;20027;-55
2021/04/16 06:38:19;;;;;;;14.83;7.67;;;;;;;;;;5113330;28;20035;-55
2021/04/16 06:40:48;;;;;;;11.97;6.43;;;;;;;;;;5113265;28;20033;-55
2021/04/16 06:43:15;;;;;;;10.80;5.67;;;;;;;;;;5114022;28;20456;-55
2021/04/16 06:45:43;;;;;;;9.53;6.00;;;;;;;;;;5117404;28;20049;-55
2021/04/16 06:48:10;;;;;;;10.17;6.70;;;;;;;;;;5117374;28;20451;-55
2021/04/16 06:50:38;;;;;;;11.63;6.43;;;;;;;;;;5117312;28;20027;-55
2021/04/16 06:53:23;;;;;;;8.07;5.70;;;;;;;;;;5117160;28;20035;-55
2021/04/16 06:55:50;;;;;;;11.95;6.72;;;;;;;;;;5076713;28;20127;-55
2021/04/16 06:58:37;;;;;;;8.63;6.10;;;;;;;;;;5076932;28;20044;-55
2021/04/16 07:01:09;;;;;;;12.83;6.70;;;;;;;;;;5076503;28;20059;-55
2021/04/16 07:03:44;;;;;;;12.33;6.03;;;;;;;;;;5076424;28;20032;-55
2021/04/16 07:06:28;;;;;;;13.67;6.10;;;;;;;;;;5076501;28;20403;-55
2021/04/16 07:09:08;;;;;;;10.03;5.47;;;;;;;;;;5076348;28;20032;-55
2021/04/16 07:11:40;;;;;;;7.60;4.87;;;;;;;;;;5076546;28;20475;-55
2021/04/16 07:14:10;;;;;;;8.40;5.53;;;;;;;;;;5076369;28;20020;-55
2021/04/16 07:16:37;;;;;;;9.37;5.87;;;;;;;;;;5076294;28;20537;-55
2021/04/16 07:19:11;;;;;;;9.60;5.10;;;;;;;;;;5076219;28;20052;-55
2021/04/16 07:21:37;;;;;;;11.17;5.53;;;;;;;;;;5076115;28;20406;-55
2021/04/16 07:24:05;;;;;;;10.43;5.80;;;;;;;;;;5076677;28;20020;-54
2021/04/16 07:26:50;;;;;;;6.97;4.70;;;;;;;;;;5076123;28;20016;-55
2021/04/16 07:29:53;;;;;;;8.70;5.17;;;;;;;;;;5075965;28;20020;-55
2021/04/16 07:32:30;;;;;;;8.90;5.03;;;;;;;;;;5033573;28;20381;-55
2021/04/16 07:35:00;;;;;;;9.37;5.10;;;;;;;;;;5071070;28;20044;-55
2021/04/16 07:37:40;;;;;;;8.03;4.97;;;;;;;;;;5076141;28;20032;-55
2021/04/16 07:40:09;;;;;;;8.17;4.73;;;;;;;;;;5075849;28;20094;-55
2021/04/16 07:42:38;;;;;;;9.27;4.90;;;;;;;;;;5076047;28;20028;-54
2021/04/16 07:45:17;;;;;;;9.80;5.17;;;;;;;;;;5075744;28;20020;-55
2021/04/16 07:47:44;;;;;;;6.53;4.50;;;;;;;;;;5075647;28;20093;-54
2021/04/16 07:50:11;;;;;;;7.90;4.37;;;;;;;;;;5075546;28;20025;-55
2021/04/16 07:52:45;;;;;;;7.47;4.60;;;;;;;;;;5075535;28;20037;-54
2021/04/16 07:55:14;;;;;;;8.85;5.00;;;;;;;;;;5107373;27;20058;-55
2021/04/16 07:57:45;;;;;;;6.97;4.20;;;;;;;;;;5116046;28;20111;-55
2021/04/16 08:00:24;;;;;;;7.67;5.33;;;;;;;;;;5116022;28;20020;-55
2021/04/16 08:02:54;;;;;;;11.77;5.90;;;;;;;;;;5116095;28;20038;-55
2021/04/16 08:05:24;;;;;;;8.17;4.93;;;;;;;;;;5116004;28;20023;-55
2021/04/16 08:08:07;;;;;;;9.73;5.63;;;;;;;;;;5115984;28;20054;-55
2021/04/16 08:10:34;;;;;;;8.47;5.33;;;;;;;;;;5115843;28;20425;-54
2021/04/16 08:13:09;;;;;;;14.57;6.50;;;;;;;;;;5115846;28;20027;-55
2021/04/16 08:15:35;;;;;;;;;;;;;;;;;;5116170;28;20015;-55
2021/04/16 08:18:22;;;;;;;10.20;7.13;;;;;;;;;;5115761;28;19949;-55
2021/04/16 08:21:03;;;;;;;10.03;6.37;;;;;;;;;;5115829;28;20029;-55
2021/04/16 08:23:40;;;;;;;11.97;6.40;;;;;;;;;;5115578;28;20032;-54
2021/04/16 08:26:09;;;;;;;9.47;6.53;;;;;;;;;;5115794;28;20466;-55
2021/04/16 08:28:47;;;;;;;12.07;7.37;;;;;;;;;;5115858;28;20032;-55
2021/04/16 08:31:16;;;;;;;14.13;6.93;;;;;;;;;;5115437;28;20100;-55
2021/04/16 08:33:51;;;;;;;11.40;6.60;;;;;;;;;;5115411;28;20027;-55
2021/04/16 08:36:18;;;;;;;11.02;6.30;;;;;;;;;;5115504;28;20031;-54
2021/04/16 08:39:00;;;;;;;12.43;7.37;;;;;;;;;;5115366;28;20502;-55
2021/04/16 08:41:34;;;;;;;10.27;6.53;;;;;;;;;;5115185;28;20474;-55
2021/04/16 08:44:11;;;;;;;10.35;6.40;;;;;;;;;;5115087;28;20110;-54
2021/04/16 08:46:47;;;;;;;8.80;6.33;;;;;;;;;;5114946;28;20047;-55
2021/04/16 08:49:25;;;;;;;13.97;7.00;;;;;;;;;;5114937;28;20410;-55
2021/04/16 08:51:58;;;;;;;10.87;6.33;;;;;;;;;;5115060;28;20050;-55
2021/04/16 08:54:39;;;;;;;10.67;6.37;;;;;;;;;;5114332;27;20051;-55
2021/04/16 08:57:28;;;;;;;11.97;7.90;;;;;;;;;;5114844;28;20032;-55
2021/04/16 09:00:02;;;;;;;14.17;7.50;;;;;;;;;;5114868;28;20081;-55
2021/04/16 09:02:34;;;;;;;10.73;6.87;;;;;;;;;;5114869;28;20023;-55
2021/04/16 09:05:14;;;;;;;10.67;6.53;;;;;;;;;;5114777;28;20372;-55
2021/04/16 09:07:41;;;;;;;12.73;7.03;;;;;;;;;;5114265;28;20028;-55
2021/04/16 09:10:16;;;;;;;13.37;7.47;;;;;;;;;;5114740;28;20447;-55
2021/04/16 09:12:49;;;;;;;12.67;7.77;;;;;;;;;;5114523;28;20032;-55
2021/04/16 09:15:22;;;;;;;14.27;7.60;;;;;;;;;;5114606;28;20401;-55
2021/04/16 09:17:54;;;;;;;11.07;7.20;;;;;;;;;;5114519;28;20023;-55
2021/04/16 09:20:36;;;;;;;12.03;8.03;;;;;;;;;;5114818;28;20252;-55
2021/04/16 09:23:04;;;;;;;14.67;7.40;;;;;;;;;;5114393;28;20028;-55
2021/04/16 09:25:37;;;;;;;10.37;6.47;;;;;;;;;;5114349;28;20023;-55
2021/04/16 09:28:22;;;;;;;10.27;6.67;;;;;;;;;;5114461;28;20327;-55
2021/04/16 09:30:54;;;;;;;9.70;6.32;;;;;;;;;;5114201;28;20031;-55
2021/04/16 09:33:48;;;;;;;12.07;7.47;;;;;;;;;;5114164;28;20050;-55
2021/04/16 09:36:27;;;;;;;9.80;6.90;;;;;;;;;;5092431;28;20782;-55
2021/04/16 09:38:55;;;;;;;11.60;5.97;;;;;;;;;;5114094;28;20335;-55
2021/04/16 09:41:23;;;;;;;8.90;6.63;;;;;;;;;;5114110;28;20028;-55
2021/04/16 09:43:53;;;;;;;10.60;6.47;;;;;;;;;;5113984;28;20171;-55
2021/04/16 09:46:40;;;;;;;10.53;6.47;;;;;;;;;;5114026;28;20024;-55
2021/04/16 09:49:08;;;;;;;11.33;6.23;;;;;;;;;;5113877;28;20038;-55
2021/04/16 09:51:35;;;;;;;8.33;5.73;;;;;;;;;;5113765;28;20778;-55
2021/04/16 09:54:14;;;;;;;10.87;5.73;;;;;;;;;;5113365;27;20594;-56
2021/04/16 09:57:01;;;;;;;9.40;6.03;;;;;;;;;;5113828;28;20260;-55
2021/04/16 09:59:29;;;;;;;11.53;7.43;;;;;;;;;;5062927;28;20248;-55
2021/04/16 10:02:12;;;;;;;11.93;6.70;;;;;;;;;;5113833;28;20032;-55
2021/04/16 10:05:01;;;;;;;12.30;7.63;;;;;;;;;;5113703;28;20256;-55
2021/04/16 10:07:35;;;;;;;10.67;7.00;;;;;;;;;;5113588;28;20236;-55
2021/04/16 10:10:07;;;;;;;11.23;7.00;;;;;;;;;;5113564;28;20255;-55
2021/04/16 10:12:34;;;;;;;12.57;7.50;;;;;;;;;;5113526;28;20287;-55
2021/04/16 10:15:15;;;;;;;10.13;6.53;;;;;;;;;;5113528;28;20244;-55
2021/04/16 10:17:53;;;;;;;8.67;6.27;;;;;;;;;;5112802;28;20331;-55
2021/04/16 10:20:19;;;;;;;12.10;5.80;;;;;;;;;;5113536;28;20630;-55
2021/04/16 10:22:58;;;;;;;12.37;6.40;;;;;;;;;;5113387;28;20252;-55
2021/04/16 12:38:14;;;;;;;11.40;7.30;;;;;;;;;;5075060;28;20252;-55
2021/04/16 12:40:41;;;;;;;13.27;6.87;;;;;;;;;;5074193;28;20268;-55
2021/04/16 12:43:08;;;;;;;11.03;6.97;;;;;;;;;;5074527;28;20249;-55
2021/04/16 12:45:35;;;;;;;13.73;7.03;;;;;;;;;;5074615;28;20258;-55
2021/04/16 12:48:01;;;;;;;12.20;7.93;;;;;;;;;;5074578;28;20654;-55
2021/04/16 12:50:30;;;;;;;12.70;7.90;;;;;;;;;;5074549;28;20261;-55
2021/04/16 12:52:57;;;;;;;14.13;8.00;;;;;;;;;;5074305;28;20423;-55
2021/04/16 12:55:24;;;;;;;14.03;7.87;;;;;;;;;;5093761;27;20279;-55
2021/04/16 12:57:54;;;;;;;9.93;6.53;;;;;;;;;;5115341;28;20256;-55
2021/04/16 13:00:25;;;;;;;11.80;6.97;;;;;;;;;;5114950;28;20723;-55
2021/04/16 13:02:58;;;;;;;10.43;6.40;;;;;;;;;;5114896;28;20405;-55
2021/04/16 13:05:25;;;;;;;12.57;7.50;;;;;;;;;;5114834;28;20264;-55
2021/04/16 13:07:52;;;;;;;13.87;7.50;;;;;;;;;;5114868;28;20252;-55
2021/04/16 13:10:19;;;;;;;14.77;8.40;;;;;;;;;;5114811;28;20248;-55
2021/04/16 13:12:46;;;;;;;14.83;8.83;;;;;;;;;;5114461;28;20712;-55
2021/04/16 13:15:14;;;;;;;12.13;7.33;;;;;;;;;;5114713;28;20263;-55
2021/04/16 13:17:42;;;;;;;15.50;8.47;;;;;;;;;;5114647;28;20615;-55
2021/04/16 13:20:13;;;;;;;18.63;10.77;;;;;;;;;;5114801;28;20576;-55
2021/04/16 13:22:40;;;;;;;17.77;9.67;;;;;;;;;;5114382;28;20256;-55
2021/04/16 13:25:07;;;;;;;21.63;9.73;;;;;;;;;;5114335;28;20023;-56
2021/04/16 13:27:34;;;;;;;16.77;9.47;;;;;;;;;;5114374;28;20054;-56
2021/04/16 13:30:01;;;;;;;20.03;9.20;;;;;;;;;;5114319;28;20036;-56
2021/04/16 13:32:30;;;;;;;16.37;8.70;;;;;;;;;;5114212;28;20123;-56
2021/04/16 13:34:58;;;;;;;11.53;8.50;;;;;;;;;;5114290;28;20047;-56
2021/04/16 13:37:29;;;;;;;15.50;7.53;;;;;;;;;;5114247;28;20032;-56
2021/04/16 13:39:56;;;;;;;22.73;8.27;;;;;;;;;;5114160;28;20096;-56
2021/04/16 13:42:23;;;;;;;11.73;8.23;;;;;;;;;;5114105;28;20119;-56
2021/04/16 13:44:50;;;;;;;13.13;7.53;;;;;;;;;;5114018;28;20106;-57
2021/04/16 13:47:24;;;;;;;16.93;7.10;;;;;;;;;;5113982;28;20023;-57
2021/04/16 13:49:51;;;;;;;9.93;6.45;;;;;;;;;;5113983;28;20035;-57
2021/04/16 13:52:18;;;;;;;10.67;6.97;;;;;;;;;;5113654;28;20038;-57
2021/04/16 13:54:47;;;;;;;16.93;7.43;;;;;;;;;;5113410;28;20060;-57
2021/04/16 13:57:16;;;;;;;11.83;7.13;;;;;;;;;;5113796;28;20091;-57
2021/04/16 13:59:46;;;;;;;12.33;6.57;;;;;;;;;;5113909;28;20023;-57
2021/04/16 14:02:18;;;;;;;13.70;7.40;;;;;;;;;;5113724;28;20030;-57
2021/04/16 14:04:46;;;;;;;12.53;6.57;;;;;;;;;;5113765;28;20027;-57
2021/04/16 14:07:14;;;;;;;13.30;6.57;;;;;;;;;;5113728;28;20028;-57
2021/04/16 14:09:41;;;;;;;11.67;7.87;;;;;;;;;;5113752;28;20498;-57
2021/04/16 14:12:09;;;;;;;10.53;6.90;;;;;;;;;;5113551;28;20444;-57
2021/04/16 14:14:36;;;;;;;13.33;7.07;;;;;;;;;;5113618;28;20023;-57
2021/04/16 14:17:05;;;;;;;14.10;8.40;;;;;;;;;;5113575;28;20051;-57
2021/04/16 14:19:44;;;;;;;12.73;7.50;;;;;;;;;;5113481;28;20107;-57
2021/04/16 14:22:15;;;;;;;13.70;7.57;;;;;;;;;;5113491;28;20370;-57
2021/04/16 14:24:42;;;;;;;14.23;7.63;;;;;;;;;;5113384;28;20432;-57
2021/04/16 14:27:09;;;;;;;14.37;7.97;;;;;;;;;;5113409;28;20053;-57
2021/04/16 14:29:36;;;;;;;14.03;8.03;;;;;;;;;;5113354;28;20030;-57
2021/04/16 14:32:03;;;;;;;12.27;9.53;;;;;;;;;;5113334;28;20031;-57
2021/04/16 14:34:32;;;;;;;17.47;9.70;;;;;;;;;;5113211;28;20490;-57
2021/04/16 14:36:58;;;;;;;29.37;8.30;;;;;;;;;;5113237;28;20019;-57
2021/04/16 14:39:26;;;;;;;13.53;7.87;;;;;;;;;;5113226;28;20031;-57
2021/04/16 14:41:55;;;;;;;14.30;7.70;;;;;;;;;;5113264;28;20024;-57
2021/04/16 14:44:22;;;;;;;16.67;7.97;;;;;;;;;;5113246;28;20037;-57
2021/04/16 14:46:52;;;;;;;15.30;7.27;;;;;;;;;;5113182;28;20110;-57
2021/04/16 14:49:25;;;;;;;12.07;6.27;;;;;;;;;;5113191;28;20016;-57
2021/04/16 14:51:51;;;;;;;9.80;5.90;;;;;;;;;;5113048;28;20126;-57
2021/04/16 14:54:33;;;;;;;9.10;5.87;;;;;;;;;;5113110;28;20027;-57
2021/04/16 14:57:00;;;;;;;12.83;5.47;;;;;;;;;;5113023;28;20503;-57
2021/04/16 14:59:35;;;;;;;8.33;5.37;;;;;;;;;;5113198;28;20470;-57
2021/04/16 15:02:02;;;;;;;13.93;5.17;;;;;;;;;;5113352;28;20024;-57
2021/04/16 15:04:29;;;;;;;10.93;5.73;;;;;;;;;;5114181;28;20024;-57
2021/04/16 15:06:58;;;;;;;10.23;5.47;;;;;;;;;;5117273;28;20110;-57
2021/04/16 15:09:26;;;;;;;9.93;6.13;;;;;;;;;;5117031;28;20035;-56
2021/04/16 15:11:54;;;;;;;7.57;5.30;;;;;;;;;;5116982;28;20040;-56
2021/04/16 15:14:23;;;;;;;9.30;5.93;;;;;;;;;;5116944;28;20058;-56
2021/04/16 15:16:51;;;;;;;13.03;6.83;;;;;;;;;;5098702;28;20474;-56
2021/04/16 15:19:27;;;;;;;14.10;5.97;;;;;;;;;;5116933;28;20023;-56
2021/04/16 15:21:55;;;;;;;9.20;5.00;;;;;;;;;;5116958;28;20020;-56
2021/04/16 15:24:22;;;;;;;7.93;5.13;;;;;;;;;;5116502;28;20543;-56
2021/04/16 15:26:48;;;;;;;12.30;5.30;;;;;;;;;;5116524;28;20023;-57
2021/04/16 15:29:24;;;;;;;10.80;5.80;;;;;;;;;;5116355;28;20027;-57
2021/04/16 15:31:51;;;;;;;10.00;5.33;;;;;;;;;;5116194;28;20147;-56
2021/04/16 15:47:55;;;;;;;9.00;5.77;;;;;;;;;;5116445;28;20116;-57
2021/04/16 15:50:24;;;;;;;9.80;6.27;;;;;;;;;;5116109;28;20020;-57
2021/04/16 15:52:51;;;;;;;16.63;6.57;;;;;;;;;;5115874;28;20061;-57
2021/04/16 15:55:18;;;;;;;12.27;5.80;;;;;;;;;;5115506;27;20048;-57
2021/04/16 15:57:46;;;;;;;9.77;5.70;;;;;;;;;;5115942;28;20114;-57
2021/04/16 16:00:19;;;;;;;9.03;5.50;;;;;;;;;;5115786;28;20027;-57
2021/04/16 16:02:46;;;;;;;10.03;5.80;;;;;;;;;;5115778;28;20390;-57
2021/04/16 16:05:13;;;;;;;11.23;6.00;;;;;;;;;;5115835;28;20023;-56
2021/04/16 16:07:40;;;;;;;12.38;6.15;;;;;;;;;;5115736;28;20069;-56
2021/04/16 16:10:08;;;;;;;11.40;6.30;;;;;;;;;;5115709;28;20097;-57
2021/04/16 16:12:36;;;;;;;11.52;5.85;;;;;;;;;;5115554;28;20070;-57
2021/04/16 16:15:09;;;;;;;7.90;5.45;;;;;;;;;;5115256;28;20055;-57
2021/04/16 16:17:39;;;;;;;12.32;5.30;;;;;;;;;;5114769;28;20101;-57
2021/04/16 16:20:06;;;;;;;8.23;5.85;;;;;;;;;;5115666;28;20428;-57
2021/04/16 16:22:33;;;;;;;13.48;6.50;;;;;;;;;;5115707;28;20027;-57
2021/04/16 16:25:00;;;;;;;11.60;6.95;;;;;;;;;;5115709;28;20027;-56
2021/04/16 16:27:30;;;;;;;9.35;6.55;;;;;;;;;;5115603;28;20383;-56
2021/04/16 16:29:58;;;;;;;12.48;6.82;;;;;;;;;;5115651;28;20033;-56
2021/04/16 16:32:27;;;;;;;11.27;5.97;;;;;;;;;;5115504;28;20035;-56
2021/04/16 16:34:54;;;;;;;11.25;6.68;;;;;;;;;;5115559;28;20020;-56
2021/04/16 16:37:23;;;;;;;11.60;7.70;;;;;;;;;;5115418;28;20032;-56
2021/04/16 16:39:50;;;;;;;12.20;6.85;;;;;;;;;;5115346;28;20048;-56
2021/04/16 16:42:27;;;;;;;11.32;5.95;;;;;;;;;;5115273;28;20023;-56
2021/04/16 16:44:54;;;;;;;14.05;7.18;;;;;;;;;;5115249;28;20027;-56
2021/04/16 16:47:22;;;;;;;11.18;6.22;;;;;;;;;;5115275;28;20073;-56
2021/04/16 16:49:49;;;;;;;11.18;6.93;;;;;;;;;;5115237;28;20047;-56
2021/04/16 16:52:16;;;;;;;7.68;5.97;;;;;;;;;;5114906;28;20065;-56
2021/04/16 16:54:43;;;;;;;18.02;7.45;;;;;;;;;;5114986;27;20444;-56
2021/04/16 16:57:13;;;;;;;17.23;7.25;;;;;;;;;;5114231;28;20043;-56
2021/04/16 16:59:41;;;;;;;11.20;6.53;;;;;;;;;;5115046;28;20478;-56
2021/04/16 17:02:10;;;;;;;18.30;6.47;;;;;;;;;;5114979;28;20081;-56
2021/04/16 17:04:37;;;;;;;12.10;5.85;;;;;;;;;;5114927;28;20015;-56
2021/04/16 17:07:04;;;;;;;12.45;6.35;;;;;;;;;;5114827;28;20028;-56
2021/04/16 17:09:31;;;;;;;9.50;6.20;;;;;;;;;;5114699;28;20106;-56
2021/04/16 17:11:58;;;;;;;9.75;6.32;;;;;;;;;;5114569;28;20526;-56
2021/04/16 17:14:29;;;;;;;14.73;7.05;;;;;;;;;;5114905;28;20024;-56
2021/04/16 17:16:57;;;;;;;11.77;6.10;;;;;;;;;;5114623;28;20035;-56